Terminal Aerodrome Forecast
Issued by NWS

Home | Current Version | Previous Version | Text Only | Print | Product List | Glossary On
Versions: 1 2 3 4 5 6 7 8 9 10 11 12 13 14 15
000
FTUS45 KPSR 292320
TAFBLH
TAF
KBLH 292320Z 3000/3024 33008KT P6SM FEW250
     FM300700 26005KT P6SM FEW250
     FM301500 19009KT P6SM FEW200
     FM302000 20022G31KT P6SM FEW200=

USA.gov is the U.S. government's official web portal to all federal, state and local government web resources and services.